Time,TemperatureF,DewpointF,PressureIn,WindDirection,WindDirectionDegrees,WindSpeedMPH,WindSpeedGustMPH,Humidity,HourlyPrecipIn,Conditions,Clouds,dailyrainin,SoftwareType,DateUTC
2013-02-14 00:05:00,39.7,34.7,29.76,WNW,288,2.0,2.0,82,0.00,,,0.00,Wunderground v.1.15,2013-02-14 05:05:00,
2013-02-14 00:09:00,39.4,35.0,29.76,WNW,288,1.0,1.0,84,0.00,,,0.00,Wunderground v.1.15,2013-02-14 05:09:00,
2013-02-14 00:14:00,39.1,34.1,29.78,NW,306,1.0,1.0,82,0.00,,,0.00,Wunderground v.1.15,2013-02-14 05:14:00,
2013-02-14 00:19:00,39.0,34.6,29.78,NW,306,1.0,1.0,84,0.00,,,0.00,Wunderground v.1.15,2013-02-14 05:19:00,
2013-02-14 00:24:00,38.8,34.7,29.78,West,273,1.0,1.0,85,0.00,,,0.00,Wunderground v.1.15,2013-02-14 05:24:00,
2013-02-14 00:30:00,38.5,34.4,29.78,West,273,1.0,1.0,85,0.00,,,0.00,Wunderground v.1.15,2013-02-14 05:30:00,
2013-02-14 00:35:00,38.2,34.4,29.78,WNW,282,1.0,2.0,86,0.00,,,0.00,Wunderground v.1.15,2013-02-14 05:35:00,
2013-02-14 00:44:00,37.4,33.6,29.79,West,281,2.0,2.0,86,0.00,,,0.00,Wunderground v.1.15,2013-02-14 05:44:00,
2013-02-14 00:49:00,37.6,33.8,29.79,WNW,290,2.0,2.0,86,0.00,,,0.00,Wunderground v.1.15,2013-02-14 05:49:00,
2013-02-14 00:54:00,37.7,33.6,29.79,WNW,297,2.0,2.0,85,0.00,,,0.00,Wunderground v.1.15,2013-02-14 05:54:00,
2013-02-14 01:00:00,37.9,33.8,29.80,WNW,290,2.0,2.0,85,0.00,,,0.00,Wunderground v.1.15,2013-02-14 06:00:00,
2013-02-14 01:05:00,37.9,33.8,29.80,WNW,286,1.0,3.0,85,0.00,,,0.00,Wunderground v.1.15,2013-02-14 06:05:00,
2013-02-14 01:14:00,37.4,34.2,29.81,WNW,288,0.0,3.0,88,0.00,,,0.00,Wunderground v.1.15,2013-02-14 06:14:00,
2013-02-14 01:19:00,37.1,34.2,29.81,WNW,288,0.0,3.0,89,0.00,,,0.00,Wunderground v.1.15,2013-02-14 06:19:00,
2013-02-14 01:25:00,36.7,33.8,29.81,WNW,288,1.0,3.0,89,0.00,,,0.00,Wunderground v.1.15,2013-02-14 06:25:00,
2013-02-14 01:30:00,36.4,33.5,29.81,WNW,288,1.0,1.0,89,0.00,,,0.00,Wunderground v.1.15,2013-02-14 06:30:00,
2013-02-14 01:35:00,36.1,33.5,29.81,WNW,288,1.0,3.0,90,0.00,,,0.00,Wunderground v.1.15,2013-02-14 06:35:00,
2013-02-14 01:44:00,35.5,33.1,29.81,WNW,288,1.0,3.0,91,0.00,,,0.00,Wunderground v.1.15,2013-02-14 06:44:00,
2013-02-14 01:50:00,35.4,33.0,29.81,WNW,288,1.0,1.0,91,0.00,,,0.00,Wunderground v.1.15,2013-02-14 06:50:00,
2013-02-14 01:55:00,35.2,32.8,29.81,WNW,288,0.0,3.0,91,0.00,,,0.00,Wunderground v.1.15,2013-02-14 06:55:00,
2013-02-14 02:04:00,35.0,32.9,29.81,WNW,284,1.0,3.0,92,0.00,,,0.00,Wunderground v.1.15,2013-02-14 07:04:00,
2013-02-14 02:09:00,35.0,32.9,29.81,WNW,291,2.0,3.0,92,0.00,,,0.00,Wunderground v.1.15,2013-02-14 07:09:00,
2013-02-14 02:14:00,35.4,33.0,29.81,WNW,282,2.0,3.0,91,0.00,,,0.00,Wunderground v.1.15,2013-02-14 07:14:00,
2013-02-14 02:20:00,35.7,33.1,29.81,WNW,292,1.0,3.0,90,0.00,,,0.00,Wunderground v.1.15,2013-02-14 07:20:00,
2013-02-14 02:25:00,35.9,33.0,29.81,WNW,292,1.0,3.0,89,0.00,,,0.00,Wunderground v.1.15,2013-02-14 07:25:00,
2013-02-14 02:34:00,36.0,33.1,29.82,WNW,292,1.0,3.0,89,0.00,,,0.00,Wunderground v.1.15,2013-02-14 07:34:00,
2013-02-14 02:39:00,35.9,32.7,29.82,WNW,292,1.0,3.0,88,0.00,,,0.00,Wunderground v.1.15,2013-02-14 07:39:00,
2013-02-14 02:44:00,35.9,32.7,29.82,WNW,292,1.0,3.0,88,0.00,,,0.00,Wunderground v.1.15,2013-02-14 07:44:00,
2013-02-14 02:50:00,36.1,32.9,29.82,WNW,292,1.0,1.0,88,0.00,,,0.00,Wunderground v.1.15,2013-02-14 07:50:00,
2013-02-14 02:55:00,36.1,32.9,29.82,WNW,292,1.0,2.0,88,0.00,,,0.00,Wunderground v.1.15,2013-02-14 07:55:00,
2013-02-14 03:04:00,35.9,32.7,29.82,WNW,293,2.0,3.0,88,0.00,,,0.00,Wunderground v.1.15,2013-02-14 08:04:00,
2013-02-14 03:09:00,36.1,32.9,29.82,West,270,1.0,1.0,88,0.00,,,0.00,Wunderground v.1.15,2013-02-14 08:09:00,
2013-02-14 03:14:00,36.1,32.9,29.83,WNW,302,1.0,3.0,88,0.00,,,0.00,Wunderground v.1.15,2013-02-14 08:14:00,
2013-02-14 03:20:00,36.0,32.8,29.83,WNW,302,0.0,3.0,88,0.00,,,0.00,Wunderground v.1.15,2013-02-14 08:20:00,
2013-02-14 03:25:00,35.8,32.6,29.83,WNW,290,1.0,3.0,88,0.00,,,0.00,Wunderground v.1.15,2013-02-14 08:25:00,
2013-02-14 03:34:00,35.7,32.8,29.84,WNW,291,1.0,3.0,89,0.00,,,0.00,Wunderground v.1.15,2013-02-14 08:34:00,
2013-02-14 03:40:00,35.5,32.3,29.84,WNW,291,1.0,3.0,88,0.00,,,0.00,Wunderground v.1.15,2013-02-14 08:40:00,
2013-02-14 03:45:00,35.5,32.3,29.84,WNW,293,1.0,3.0,88,0.00,,,0.00,Wunderground v.1.15,2013-02-14 08:45:00,
2013-02-14 03:50:00,35.5,32.3,29.84,WNW,293,1.0,3.0,88,0.00,,,0.00,Wunderground v.1.15,2013-02-14 08:50:00,
2013-02-14 03:59:00,35.0,32.4,29.85,WNW,293,0.0,3.0,90,0.00,,,0.00,Wunderground v.1.15,2013-02-14 08:59:00,
2013-02-14 04:04:00,34.7,32.1,29.85,WNW,293,0.0,3.0,90,0.00,,,0.00,Wunderground v.1.15,2013-02-14 09:04:00,
2013-02-14 04:10:00,34.5,32.1,29.85,WNW,293,0.0,3.0,91,0.00,,,0.00,Wunderground v.1.15,2013-02-14 09:10:00,
2013-02-14 04:15:00,34.2,31.8,29.86,WNW,293,1.0,3.0,91,0.00,,,0.00,Wunderground v.1.15,2013-02-14 09:15:00,
2013-02-14 04:24:00,33.7,31.6,29.86,WNW,294,1.0,3.0,92,0.00,,,0.00,Wunderground v.1.15,2013-02-14 09:24:00,
2013-02-14 04:29:00,33.6,31.5,29.86,WNW,293,1.0,3.0,92,0.00,,,0.00,Wunderground v.1.15,2013-02-14 09:29:00,
2013-02-14 04:34:00,33.4,31.3,29.86,WNW,293,1.0,3.0,92,0.00,,,0.00,Wunderground v.1.15,2013-02-14 09:34:00,
2013-02-14 04:40:00,33.5,31.4,29.86,WNW,293,1.0,3.0,92,0.00,,,0.00,Wunderground v.1.15,2013-02-14 09:40:00,
2013-02-14 04:45:00,33.7,31.6,29.86,WNW,293,1.0,3.0,92,0.00,,,0.00,Wunderground v.1.15,2013-02-14 09:45:00,
2013-02-14 04:54:00,33.6,31.3,29.86,WNW,293,1.0,3.0,91,0.00,,,0.00,Wunderground v.1.15,2013-02-14 09:54:00,
2013-02-14 04:59:00,33.5,31.4,29.87,WNW,293,1.0,1.0,92,0.00,,,0.00,Wunderground v.1.15,2013-02-14 09:59:00,
2013-02-14 05:04:00,33.3,31.2,29.87,WNW,293,1.0,3.0,92,0.00,,,0.00,Wunderground v.1.15,2013-02-14 10:04:00,
2013-02-14 05:10:00,33.1,31.3,29.87,WNW,293,1.0,1.0,93,0.00,,,0.00,Wunderground v.1.15,2013-02-14 10:10:00,
2013-02-14 05:19:00,32.8,31.0,29.88,WNW,293,0.0,3.0,93,0.00,,,0.00,Wunderground v.1.15,2013-02-14 10:19:00,
2013-02-14 05:24:00,32.7,30.9,29.88,WNW,293,0.0,3.0,93,0.00,,,0.00,Wunderground v.1.15,2013-02-14 10:24:00,
2013-02-14 05:30:00,32.6,30.8,29.89,WNW,293,0.0,3.0,93,0.00,,,0.00,Wunderground v.1.15,2013-02-14 10:30:00,
2013-02-14 05:35:00,32.5,31.0,29.89,WNW,293,0.0,3.0,94,0.00,,,0.00,Wunderground v.1.15,2013-02-14 10:35:00,
2013-02-14 05:40:00,32.3,30.8,29.89,WNW,293,0.0,3.0,94,0.00,,,0.00,Wunderground v.1.15,2013-02-14 10:40:00,
2013-02-14 05:49:00,32.1,30.6,29.89,WNW,293,0.0,3.0,94,0.00,,,0.00,Wunderground v.1.15,2013-02-14 10:49:00,
2013-02-14 05:54:00,31.9,30.4,29.89,WNW,293,0.0,3.0,94,0.00,,,0.00,Wunderground v.1.15,2013-02-14 10:54:00,
2013-02-14 06:00:00,31.8,30.3,29.90,WNW,293,0.0,3.0,94,0.00,,,0.00,Wunderground v.1.15,2013-02-14 11:00:00,
2013-02-14 06:05:00,31.7,30.2,29.90,WNW,293,0.0,3.0,94,0.00,,,0.00,Wunderground v.1.15,2013-02-14 11:05:00,
2013-02-14 06:14:00,31.5,30.0,29.91,WNW,293,0.0,3.0,94,0.00,,,0.00,Wunderground v.1.15,2013-02-14 11:14:00,
2013-02-14 06:19:00,31.4,29.9,29.91,WNW,293,0.0,3.0,94,0.00,,,0.00,Wunderground v.1.15,2013-02-14 11:19:00,
2013-02-14 06:24:00,31.3,29.8,29.91,WNW,293,0.0,3.0,94,0.00,,,0.00,Wunderground v.1.15,2013-02-14 11:24:00,
2013-02-14 06:30:00,31.2,29.9,29.91,WNW,293,0.0,3.0,95,0.00,,,0.00,Wunderground v.1.15,2013-02-14 11:30:00,
2013-02-14 06:35:00,31.1,29.8,29.91,WNW,293,0.0,3.0,95,0.00,,,0.00,Wunderground v.1.15,2013-02-14 11:35:00,
2013-02-14 06:44:00,30.8,29.5,29.92,WNW,293,0.0,3.0,95,0.00,,,0.00,Wunderground v.1.15,2013-02-14 11:44:00,
2013-02-14 06:49:00,30.7,29.4,29.92,WNW,293,0.0,3.0,95,0.00,,,0.00,Wunderground v.1.15,2013-02-14 11:49:00,
2013-02-14 06:55:00,30.6,29.3,29.92,WNW,293,0.0,3.0,95,0.00,,,0.00,Wunderground v.1.15,2013-02-14 11:55:00,
2013-02-14 07:00:00,30.4,28.9,29.93,WNW,293,0.0,3.0,94,0.00,,,0.00,Wunderground v.1.15,2013-02-14 12:00:00,
2013-02-14 07:09:00,30.2,28.9,29.93,WNW,293,0.0,3.0,95,0.00,,,0.00,Wunderground v.1.15,2013-02-14 12:09:00,
2013-02-14 07:14:00,30.1,28.8,29.94,WNW,293,0.0,3.0,95,0.00,,,0.00,Wunderground v.1.15,2013-02-14 12:14:00,
2013-02-14 07:20:00,30.0,28.7,29.94,WNW,293,0.0,3.0,95,0.00,,,0.00,Wunderground v.1.15,2013-02-14 12:20:00,
2013-02-14 07:29:00,29.9,28.6,29.94,WNW,293,0.0,3.0,95,0.00,,,0.00,Wunderground v.1.15,2013-02-14 12:29:00,
2013-02-14 07:34:00,29.9,28.6,29.94,WNW,293,0.0,3.0,95,0.00,,,0.00,Wunderground v.1.15,2013-02-14 12:34:00,
2013-02-14 07:39:00,29.8,28.5,29.94,WNW,293,0.0,3.0,95,0.00,,,0.00,Wunderground v.1.15,2013-02-14 12:39:00,
2013-02-14 07:45:00,29.8,28.5,29.94,WNW,293,0.0,3.0,95,0.00,,,0.00,Wunderground v.1.15,2013-02-14 12:45:00,
2013-02-14 07:50:00,29.9,28.6,29.94,WNW,293,0.0,3.0,95,0.00,,,0.00,Wunderground v.1.15,2013-02-14 12:50:00,
2013-02-14 07:59:00,30.0,29.0,29.95,WNW,293,0.0,3.0,96,0.00,,,0.00,Wunderground v.1.15,2013-02-14 12:59:00,
2013-02-14 08:04:00,30.1,29.1,29.95,WNW,293,1.0,3.0,96,0.00,,,0.00,Wunderground v.1.15,2013-02-14 13:04:00,
2013-02-14 08:09:00,30.2,29.2,29.95,WNW,293,1.0,3.0,96,0.00,,,0.00,Wunderground v.1.15,2013-02-14 13:09:00,
2013-02-14 08:15:00,30.4,29.4,29.95,WNW,293,1.0,3.0,96,0.00,,,0.00,Wunderground v.1.15,2013-02-14 13:15:00,
2013-02-14 08:20:00,30.6,29.6,29.95,WNW,293,1.0,3.0,96,0.00,,,0.00,Wunderground v.1.15,2013-02-14 13:20:00,
2013-02-14 08:29:00,31.0,30.0,29.97,WNW,293,2.0,3.0,96,0.00,,,0.00,Wunderground v.1.15,2013-02-14 13:29:00,
2013-02-14 08:34:00,31.3,30.5,29.97,WNW,293,1.0,3.0,97,0.00,,,0.00,Wunderground v.1.15,2013-02-14 13:34:00,
2013-02-14 08:39:00,31.7,30.9,29.97,WNW,288,1.0,3.0,97,0.00,,,0.00,Wunderground v.1.15,2013-02-14 13:39:00,
2013-02-14 08:45:00,32.1,31.3,29.99,West,279,1.0,3.0,97,0.00,,,0.00,Wunderground v.1.15,2013-02-14 13:45:00,
2013-02-14 08:54:00,33.6,32.8,29.99,NNW,328,2.0,3.0,97,0.00,,,0.00,Wunderground v.1.15,2013-02-14 13:54:00,
2013-02-14 08:59:00,34.5,33.5,30.00,West,269,2.0,3.0,96,0.00,,,0.00,Wunderground v.1.15,2013-02-14 13:59:00,
2013-02-14 09:05:00,35.9,33.5,30.00,WNW,300,1.0,3.0,91,0.00,,,0.00,Wunderground v.1.15,2013-02-14 14:05:00,
2013-02-14 09:10:00,36.8,33.3,30.00,WNW,285,1.0,3.0,87,0.00,,,0.00,Wunderground v.1.15,2013-02-14 14:10:00,
2013-02-14 09:15:00,37.8,33.7,30.00,West,278,1.0,3.0,85,0.00,,,0.00,Wunderground v.1.15,2013-02-14 14:15:00,
2013-02-14 09:24:00,39.3,33.0,30.00,WNW,287,2.0,3.0,78,0.00,,,0.00,Wunderground v.1.15,2013-02-14 14:24:00,
2013-02-14 09:29:00,39.8,32.8,29.99,WNW,293,2.0,3.0,76,0.00,,,0.00,Wunderground v.1.15,2013-02-14 14:29:00,
2013-02-14 09:35:00,40.2,32.6,29.99,NNW,345,2.0,3.0,74,0.00,,,0.00,Wunderground v.1.15,2013-02-14 14:35:00,
2013-02-14 09:40:00,40.5,32.9,29.99,WNW,302,2.0,3.0,74,0.00,,,0.00,Wunderground v.1.15,2013-02-14 14:40:00,
2013-02-14 09:49:00,41.1,33.8,29.98,NNW,345,2.0,2.0,75,0.00,,,0.00,Wunderground v.1.15,2013-02-14 14:49:00,
2013-02-14 09:54:00,41.5,33.5,29.98,NW,323,2.0,3.0,73,0.00,,,0.00,Wunderground v.1.15,2013-02-14 14:54:00,
2013-02-14 09:59:00,41.9,33.9,29.99,NNW,345,2.0,6.0,73,0.00,,,0.00,Wunderground v.1.15,2013-02-14 14:59:00,
2013-02-14 10:05:00,42.2,33.5,29.99,WNW,283,2.0,6.0,71,0.00,,,0.00,Wunderground v.1.15,2013-02-14 15:05:00,
2013-02-14 10:10:00,42.4,32.9,29.99,WNW,300,2.0,3.0,69,0.00,,,0.00,Wunderground v.1.15,2013-02-14 15:10:00,
2013-02-14 10:19:00,43.2,34.1,29.98,NNW,338,2.0,3.0,70,0.00,,,0.00,Wunderground v.1.15,2013-02-14 15:19:00,
2013-02-14 10:24:00,43.4,33.9,29.98,NNW,345,2.0,3.0,69,0.00,,,0.00,Wunderground v.1.15,2013-02-14 15:24:00,
2013-02-14 10:29:00,43.6,33.7,29.98,NNW,338,2.0,3.0,68,0.00,,,0.00,Wunderground v.1.15,2013-02-14 15:29:00,
2013-02-14 10:35:00,43.7,33.1,29.98,WNW,301,2.0,3.0,66,0.00,,,0.00,Wunderground v.1.15,2013-02-14 15:35:00,
2013-02-14 10:44:00,44.0,33.0,29.98,NNW,345,2.0,3.0,65,0.00,,,0.00,Wunderground v.1.15,2013-02-14 15:44:00,
2013-02-14 10:49:00,44.0,31.8,29.98,WNW,298,2.0,2.0,62,0.00,,,0.00,Wunderground v.1.15,2013-02-14 15:49:00,
2013-02-14 10:55:00,44.4,33.0,29.98,NW,314,2.0,3.0,64,0.00,,,0.00,Wunderground v.1.15,2013-02-14 15:55:00,
2013-02-14 11:00:00,44.9,33.1,29.99,NW,314,2.0,3.0,63,0.00,,,0.00,Wunderground v.1.15,2013-02-14 16:00:00,
2013-02-14 11:05:00,45.0,32.3,29.99,WNW,298,2.0,3.0,61,0.00,,,0.00,Wunderground v.1.15,2013-02-14 16:05:00,
2013-02-14 11:14:00,45.2,32.9,29.99,NNW,345,2.0,3.0,62,0.00,,,0.00,Wunderground v.1.15,2013-02-14 16:14:00,
2013-02-14 11:19:00,45.4,31.5,29.99,NNW,345,1.0,3.0,58,0.00,,,0.00,Wunderground v.1.15,2013-02-14 16:19:00,
2013-02-14 11:25:00,45.4,31.5,29.99,WNW,290,2.0,3.0,58,0.00,,,0.00,Wunderground v.1.15,2013-02-14 16:25:00,
2013-02-14 11:30:00,45.6,34.1,29.99,NNW,345,2.0,2.0,64,0.00,,,0.00,Wunderground v.1.15,2013-02-14 16:30:00,
2013-02-14 11:39:00,46.1,32.1,29.99,NNW,345,2.0,2.0,58,0.00,,,0.00,Wunderground v.1.15,2013-02-14 16:39:00,
2013-02-14 11:44:00,46.0,31.6,29.97,SSW,212,1.0,3.0,57,0.00,,,0.00,Wunderground v.1.15,2013-02-14 16:44:00,
2013-02-14 11:49:00,46.1,31.7,29.97,NNW,345,1.0,3.0,57,0.00,,,0.00,Wunderground v.1.15,2013-02-14 16:49:00,
2013-02-14 11:55:00,46.1,30.8,29.97,NNW,345,1.0,3.0,55,0.00,,,0.00,Wunderground v.1.15,2013-02-14 16:55:00,
2013-02-14 12:00:00,46.1,31.7,29.98,WSW,252,1.0,3.0,57,0.00,,,0.00,Wunderground v.1.15,2013-02-14 17:00:00,
2013-02-14 12:05:00,46.1,31.7,29.98,SW,232,1.0,3.0,57,0.00,,,0.00,Wunderground v.1.15,2013-02-14 17:05:00,
2013-02-14 12:14:00,46.3,31.9,29.98,WSW,244,2.0,3.0,57,0.00,,,0.00,Wunderground v.1.15,2013-02-14 17:14:00,
2013-02-14 12:19:00,46.1,31.3,29.98,WSW,244,1.0,1.0,56,0.00,,,0.00,Wunderground v.1.15,2013-02-14 17:19:00,
2013-02-14 12:24:00,46.0,31.2,29.98,South,173,0.0,1.0,56,0.00,,,0.00,Wunderground v.1.15,2013-02-14 17:24:00,
2013-02-14 12:30:00,46.3,32.7,29.97,South,173,0.0,0.0,59,0.00,,,0.00,Wunderground v.1.15,2013-02-14 17:30:00,
2013-02-14 12:35:00,46.6,33.0,29.97,NW,309,1.0,2.0,59,0.00,,,0.00,Wunderground v.1.15,2013-02-14 17:35:00,
2013-02-14 12:44:00,47.0,32.5,29.97,SSW,200,2.0,5.0,57,0.00,,,0.00,Wunderground v.1.15,2013-02-14 17:44:00,
2013-02-14 12:49:00,47.1,32.6,29.97,SSW,205,2.0,2.0,57,0.00,,,0.00,Wunderground v.1.15,2013-02-14 17:49:00,
2013-02-14 12:54:00,47.4,32.9,29.97,South,174,2.0,2.0,57,0.00,,,0.00,Wunderground v.1.15,2013-02-14 17:54:00,
2013-02-14 13:00:00,47.6,32.7,29.97,SW,231,2.0,2.0,56,0.00,,,0.00,Wunderground v.1.15,2013-02-14 18:00:00,
2013-02-14 13:05:00,47.6,32.2,29.97,SSW,207,2.0,3.0,55,0.00,,,0.00,Wunderground v.1.15,2013-02-14 18:05:00,
2013-02-14 13:14:00,47.6,33.5,29.97,South,184,2.0,3.0,58,0.00,,,0.00,Wunderground v.1.15,2013-02-14 18:14:00,
2013-02-14 13:19:00,47.9,33.8,29.97,SSW,201,1.0,1.0,58,0.00,,,0.00,Wunderground v.1.15,2013-02-14 18:19:00,
2013-02-14 13:24:00,48.1,32.7,29.97,NW,309,1.0,3.0,55,0.00,,,0.00,Wunderground v.1.15,2013-02-14 18:24:00,
2013-02-14 13:30:00,48.3,33.8,29.96,West,277,2.0,3.0,57,0.00,,,0.00,Wunderground v.1.15,2013-02-14 18:30:00,
2013-02-14 13:35:00,48.3,33.3,29.96,West,274,3.0,3.0,56,0.00,,,0.00,Wunderground v.1.15,2013-02-14 18:35:00,
2013-02-14 13:44:00,48.0,32.1,29.95,WNW,302,2.0,3.0,54,0.00,,,0.00,Wunderground v.1.15,2013-02-14 18:44:00,
2013-02-14 13:49:00,48.1,34.0,29.95,West,269,2.0,2.0,58,0.00,,,0.00,Wunderground v.1.15,2013-02-14 18:49:00,
2013-02-14 13:55:00,48.2,32.8,29.95,West,269,1.0,3.0,55,0.00,,,0.00,Wunderground v.1.15,2013-02-14 18:55:00,
2013-02-14 14:00:00,48.4,33.4,29.95,WSW,251,2.0,3.0,56,0.00,,,0.00,Wunderground v.1.15,2013-02-14 19:00:00,
2013-02-14 14:09:00,48.4,33.0,29.95,West,274,2.0,2.0,55,0.00,,,0.00,Wunderground v.1.15,2013-02-14 19:09:00,
2013-02-14 14:14:00,48.5,32.6,29.95,WNW,286,2.0,3.0,54,0.00,,,0.00,Wunderground v.1.15,2013-02-14 19:14:00,
2013-02-14 14:19:00,48.7,32.3,29.95,SW,228,2.0,4.0,53,0.00,,,0.00,Wunderground v.1.15,2013-02-14 19:19:00,
2013-02-14 14:25:00,48.7,32.3,29.95,SW,217,3.0,4.0,53,0.00,,,0.00,Wunderground v.1.15,2013-02-14 19:25:00,
2013-02-14 14:34:00,49.3,32.4,29.94,NNW,329,3.0,3.0,52,0.00,,,0.00,Wunderground v.1.15,2013-02-14 19:34:00,
2013-02-14 14:39:00,49.2,31.8,29.94,West,272,2.0,2.0,51,0.00,,,0.00,Wunderground v.1.15,2013-02-14 19:39:00,
2013-02-14 14:44:00,49.2,32.8,29.93,WNW,285,2.0,3.0,53,0.00,,,0.00,Wunderground v.1.15,2013-02-14 19:44:00,
2013-02-14 14:49:00,49.2,31.3,29.93,South,174,2.0,3.0,50,0.00,,,0.00,Wunderground v.1.15,2013-02-14 19:49:00,
2013-02-14 14:55:00,49.2,31.8,29.93,West,269,2.0,3.0,51,0.00,,,0.00,Wunderground v.1.15,2013-02-14 19:55:00,
2013-02-14 15:04:00,49.2,31.3,29.93,SSW,205,2.0,3.0,50,0.00,,,0.00,Wunderground v.1.15,2013-02-14 20:04:00,
2013-02-14 15:09:00,49.2,31.8,29.93,WSW,244,2.0,2.0,51,0.00,,,0.00,Wunderground v.1.15,2013-02-14 20:09:00,
2013-02-14 15:14:00,49.2,30.8,29.93,SSW,200,1.0,3.0,49,0.00,,,0.00,Wunderground v.1.15,2013-02-14 20:14:00,
2013-02-14 15:20:00,49.2,31.3,29.93,SW,214,1.0,3.0,50,0.00,,,0.00,Wunderground v.1.15,2013-02-14 20:20:00,
2013-02-14 15:25:00,49.1,30.7,29.93,South,173,1.0,3.0,49,0.00,,,0.00,Wunderground v.1.15,2013-02-14 20:25:00,
2013-02-14 15:34:00,49.1,31.2,29.94,South,174,1.0,3.0,50,0.00,,,0.00,Wunderground v.1.15,2013-02-14 20:34:00,
2013-02-14 15:39:00,49.2,30.8,29.94,WSW,256,1.0,3.0,49,0.00,,,0.00,Wunderground v.1.15,2013-02-14 20:39:00,
2013-02-14 15:45:00,49.2,31.3,29.94,WSW,238,2.0,3.0,50,0.00,,,0.00,Wunderground v.1.15,2013-02-14 20:45:00,
2013-02-14 15:50:00,49.4,33.0,29.94,South,174,1.0,3.0,53,0.00,,,0.00,Wunderground v.1.15,2013-02-14 20:50:00,
2013-02-14 15:55:00,49.4,31.5,29.94,South,174,1.0,3.0,50,0.00,,,0.00,Wunderground v.1.15,2013-02-14 20:55:00,
2013-02-14 16:04:00,49.5,31.6,29.94,WSW,238,1.0,3.0,50,0.00,,,0.00,Wunderground v.1.15,2013-02-14 21:04:00,
2013-02-14 16:09:00,49.8,31.9,29.94,SSW,210,1.0,3.0,50,0.00,,,0.00,Wunderground v.1.15,2013-02-14 21:09:00,
2013-02-14 16:15:00,49.8,31.9,29.94,South,179,2.0,3.0,50,0.00,,,0.00,Wunderground v.1.15,2013-02-14 21:15:00,
2013-02-14 16:24:00,49.7,32.3,29.94,SSW,212,1.0,3.0,51,0.00,,,0.00,Wunderground v.1.15,2013-02-14 21:24:00,
2013-02-14 16:29:00,49.6,32.7,29.94,South,185,1.0,1.0,52,0.00,,,0.00,Wunderground v.1.15,2013-02-14 21:29:00,
2013-02-14 16:34:00,49.4,31.5,29.94,WSW,248,1.0,2.0,50,0.00,,,0.00,Wunderground v.1.15,2013-02-14 21:34:00,
2013-02-14 16:39:00,49.2,32.3,29.94,WSW,247,1.0,3.0,52,0.00,,,0.00,Wunderground v.1.15,2013-02-14 21:39:00,
2013-02-14 16:45:00,49.0,30.7,29.95,West,274,2.0,3.0,49,0.00,,,0.00,Wunderground v.1.15,2013-02-14 21:45:00,
2013-02-14 16:54:00,48.8,31.5,29.95,SW,221,1.0,3.0,51,0.00,,,0.00,Wunderground v.1.15,2013-02-14 21:54:00,
2013-02-14 16:59:00,48.7,32.3,29.94,SW,217,1.0,3.0,53,0.00,,,0.00,Wunderground v.1.15,2013-02-14 21:59:00,
2013-02-14 17:04:00,48.5,31.2,29.94,SW,224,1.0,3.0,51,0.00,,,0.00,Wunderground v.1.15,2013-02-14 22:04:00,
2013-02-14 17:10:00,48.4,33.4,29.94,SW,232,1.0,1.0,56,0.00,,,0.00,Wunderground v.1.15,2013-02-14 22:10:00,
2013-02-14 17:15:00,48.2,33.2,29.95,SW,221,0.0,3.0,56,0.00,,,0.00,Wunderground v.1.15,2013-02-14 22:15:00,
2013-02-14 17:24:00,47.7,32.8,29.95,SW,217,1.0,3.0,56,0.00,,,0.00,Wunderground v.1.15,2013-02-14 22:24:00,
2013-02-14 17:29:00,47.5,33.0,29.95,SW,229,0.0,3.0,57,0.00,,,0.00,Wunderground v.1.15,2013-02-14 22:29:00,
2013-02-14 17:34:00,47.2,34.0,29.95,SW,229,0.0,3.0,60,0.00,,,0.00,Wunderground v.1.15,2013-02-14 22:34:00,
2013-02-14 17:40:00,46.9,33.3,29.95,SW,229,0.0,3.0,59,0.00,,,0.00,Wunderground v.1.15,2013-02-14 22:40:00,
2013-02-14 17:49:00,46.0,33.7,29.95,SW,229,0.0,3.0,62,0.00,,,0.00,Wunderground v.1.15,2013-02-14 22:49:00,
2013-02-14 17:54:00,45.5,34.4,29.95,SW,229,0.0,3.0,65,0.00,,,0.00,Wunderground v.1.15,2013-02-14 22:54:00,
2013-02-14 18:00:00,44.9,35.3,29.95,SW,229,0.0,3.0,69,0.00,,,0.00,Wunderground v.1.15,2013-02-14 23:00:00,
2013-02-14 18:05:00,44.4,34.5,29.95,SW,229,0.0,3.0,68,0.00,,,0.00,Wunderground v.1.15,2013-02-14 23:05:00,
2013-02-14 18:14:00,43.5,35.1,29.95,SW,229,0.0,3.0,72,0.00,,,0.00,Wunderground v.1.15,2013-02-14 23:14:00,
2013-02-14 18:19:00,43.0,35.3,29.95,SW,229,0.0,3.0,74,0.00,,,0.00,Wunderground v.1.15,2013-02-14 23:19:00,
2013-02-14 18:24:00,42.6,35.2,29.95,SW,229,0.0,3.0,75,0.00,,,0.00,Wunderground v.1.15,2013-02-14 23:24:00,
2013-02-14 18:30:00,42.2,35.2,29.95,SW,229,0.0,3.0,76,0.00,,,0.00,Wunderground v.1.15,2013-02-14 23:30:00,
2013-02-14 18:39:00,41.4,35.1,29.95,SW,229,0.0,3.0,78,0.00,,,0.00,Wunderground v.1.15,2013-02-14 23:39:00,
2013-02-14 18:44:00,41.1,34.8,29.96,SW,229,0.0,3.0,78,0.00,,,0.00,Wunderground v.1.15,2013-02-14 23:44:00,
2013-02-14 18:49:00,40.8,34.5,29.96,SW,229,0.0,3.0,78,0.00,,,0.00,Wunderground v.1.15,2013-02-14 23:49:00,
2013-02-14 18:54:00,40.4,34.4,29.96,SW,229,0.0,3.0,79,0.00,,,0.00,Wunderground v.1.15,2013-02-14 23:54:00,
2013-02-14 19:00:00,40.1,34.1,29.97,SW,229,0.0,3.0,79,0.00,,,0.00,Wunderground v.1.15,2013-02-15 00:00:00,
2013-02-14 19:09:00,39.6,34.2,29.97,SW,229,0.0,3.0,81,0.00,,,0.00,Wunderground v.1.15,2013-02-15 00:09:00,
2013-02-14 19:14:00,39.3,34.3,29.98,SW,229,0.0,3.0,82,0.00,,,0.00,Wunderground v.1.15,2013-02-15 00:14:00,
2013-02-14 19:20:00,39.1,34.1,29.98,SW,229,0.0,3.0,82,0.00,,,0.00,Wunderground v.1.15,2013-02-15 00:20:00,
2013-02-14 19:25:00,38.8,34.1,29.98,SW,229,0.0,3.0,83,0.00,,,0.00,Wunderground v.1.15,2013-02-15 00:25:00,
2013-02-14 19:30:00,38.5,34.1,29.98,SW,229,0.0,3.0,84,0.00,,,0.00,Wunderground v.1.15,2013-02-15 00:30:00,
2013-02-14 19:39:00,37.9,33.8,29.98,SW,229,0.0,3.0,85,0.00,,,0.00,Wunderground v.1.15,2013-02-15 00:39:00,
2013-02-14 19:44:00,37.6,33.5,29.98,SW,229,0.0,3.0,85,0.00,,,0.00,Wunderground v.1.15,2013-02-15 00:44:00,
2013-02-14 19:50:00,37.3,33.5,29.98,SW,229,0.0,3.0,86,0.00,,,0.00,Wunderground v.1.15,2013-02-15 00:50:00,
2013-02-14 19:55:00,37.1,33.3,29.98,SW,229,0.0,3.0,86,0.00,,,0.00,Wunderground v.1.15,2013-02-15 00:55:00,
2013-02-14 20:00:00,36.8,33.3,29.98,SW,229,0.0,3.0,87,0.00,,,0.00,Wunderground v.1.15,2013-02-15 01:00:00,
2013-02-14 20:09:00,36.5,33.3,29.98,SW,229,0.0,3.0,88,0.00,,,0.00,Wunderground v.1.15,2013-02-15 01:09:00,
2013-02-14 20:14:00,36.3,33.4,29.98,SW,229,0.0,3.0,89,0.00,,,0.00,Wunderground v.1.15,2013-02-15 01:14:00,
2013-02-14 20:20:00,36.0,33.1,29.98,SW,229,0.0,3.0,89,0.00,,,0.00,Wunderground v.1.15,2013-02-15 01:20:00,
2013-02-14 20:29:00,35.7,32.8,29.98,SW,229,0.0,3.0,89,0.00,,,0.00,Wunderground v.1.15,2013-02-15 01:29:00,
2013-02-14 20:34:00,35.6,32.7,29.99,SW,229,0.0,3.0,89,0.00,,,0.00,Wunderground v.1.15,2013-02-15 01:34:00,
2013-02-14 20:39:00,35.4,32.8,29.99,SW,229,0.0,3.0,90,0.00,,,0.00,Wunderground v.1.15,2013-02-15 01:39:00,
2013-02-14 20:44:00,35.3,32.9,29.99,SW,229,0.0,3.0,91,0.00,,,0.00,Wunderground v.1.15,2013-02-15 01:44:00,
2013-02-14 20:50:00,35.2,32.6,29.99,SW,229,0.0,3.0,90,0.00,,,0.00,Wunderground v.1.15,2013-02-15 01:50:00,
2013-02-14 20:59:00,35.1,32.7,29.99,SW,229,0.0,3.0,91,0.00,,,0.00,Wunderground v.1.15,2013-02-15 01:59:00,
2013-02-14 21:04:00,35.0,32.6,29.99,SW,229,0.0,3.0,91,0.00,,,0.00,Wunderground v.1.15,2013-02-15 02:04:00,
2013-02-14 21:09:00,35.0,32.6,29.99,SW,229,0.0,3.0,91,0.00,,,0.00,Wunderground v.1.15,2013-02-15 02:09:00,
2013-02-14 21:14:00,34.9,32.5,29.99,SW,229,0.0,3.0,91,0.00,,,0.00,Wunderground v.1.15,2013-02-15 02:14:00,
2013-02-14 21:20:00,34.8,32.4,29.99,SW,229,0.0,3.0,91,0.00,,,0.00,Wunderground v.1.15,2013-02-15 02:20:00,
2013-02-14 21:29:00,34.7,32.3,30.00,SW,229,0.0,3.0,91,0.00,,,0.00,Wunderground v.1.15,2013-02-15 02:29:00,
2013-02-14 21:34:00,34.6,32.5,30.00,SW,229,0.0,3.0,92,0.00,,,0.00,Wunderground v.1.15,2013-02-15 02:34:00,
2013-02-14 21:40:00,34.5,32.4,30.00,SW,229,0.0,3.0,92,0.00,,,0.00,Wunderground v.1.15,2013-02-15 02:40:00,
2013-02-14 21:45:00,34.5,32.4,30.01,SW,229,0.0,3.0,92,0.00,,,0.00,Wunderground v.1.15,2013-02-15 02:45:00,
2013-02-14 21:50:00,34.4,32.3,30.01,SW,229,0.0,3.0,92,0.00,,,0.00,Wunderground v.1.15,2013-02-15 02:50:00,
2013-02-14 21:59:00,34.3,32.2,30.02,SW,220,0.0,3.0,92,0.00,,,0.00,Wunderground v.1.15,2013-02-15 02:59:00,
2013-02-14 22:04:00,34.2,32.1,30.02,SW,217,0.0,3.0,92,0.00,,,0.00,Wunderground v.1.15,2013-02-15 03:04:00,
2013-02-14 22:10:00,34.1,32.0,30.02,SW,217,0.0,3.0,92,0.00,,,0.00,Wunderground v.1.15,2013-02-15 03:10:00,
2013-02-14 22:19:00,34.0,31.9,30.01,SW,217,0.0,3.0,92,0.00,,,0.00,Wunderground v.1.15,2013-02-15 03:19:00,
2013-02-14 22:24:00,33.8,31.7,30.01,SW,217,0.0,3.0,92,0.00,,,0.00,Wunderground v.1.15,2013-02-15 03:24:00,
2013-02-14 22:29:00,33.7,31.6,30.01,SW,217,0.0,3.0,92,0.00,,,0.00,Wunderground v.1.15,2013-02-15 03:29:00,
2013-02-14 22:34:00,33.6,31.8,30.01,SSW,212,0.0,3.0,93,0.00,,,0.00,Wunderground v.1.15,2013-02-15 03:34:00,
2013-02-14 22:40:00,33.5,31.7,30.01,SSW,212,0.0,3.0,93,0.00,,,0.00,Wunderground v.1.15,2013-02-15 03:40:00,
2013-02-14 22:49:00,33.2,31.1,30.00,SSW,212,0.0,3.0,92,0.00,,,0.00,Wunderground v.1.15,2013-02-15 03:49:00,
2013-02-14 22:54:00,33.0,30.9,30.00,SSW,212,0.0,3.0,92,0.00,,,0.00,Wunderground v.1.15,2013-02-15 03:54:00,
2013-02-14 22:59:00,32.8,30.7,30.00,SSW,212,0.0,3.0,92,0.00,,,0.00,Wunderground v.1.15,2013-02-15 03:59:00,
2013-02-14 23:05:00,32.7,30.6,30.00,SSW,212,0.0,3.0,92,0.00,,,0.00,Wunderground v.1.15,2013-02-15 04:05:00,
2013-02-14 23:14:00,32.5,30.7,30.00,SSW,212,0.0,3.0,93,0.00,,,0.00,Wunderground v.1.15,2013-02-15 04:14:00,
2013-02-14 23:19:00,32.3,30.5,30.00,SSW,212,0.0,3.0,93,0.00,,,0.00,Wunderground v.1.15,2013-02-15 04:19:00,
2013-02-14 23:25:00,32.2,30.4,30.00,SSW,212,0.0,3.0,93,0.00,,,0.00,Wunderground v.1.15,2013-02-15 04:25:00,
2013-02-14 23:34:00,32.1,30.3,30.00,SSW,212,0.0,3.0,93,0.00,,,0.00,Wunderground v.1.15,2013-02-15 04:34:00,
2013-02-14 23:39:00,32.0,30.2,30.00,SSW,212,0.0,3.0,93,0.00,,,0.00,Wunderground v.1.15,2013-02-15 04:39:00,
2013-02-14 23:44:00,31.8,30.0,30.00,SSW,212,0.0,3.0,93,0.00,,,0.00,Wunderground v.1.15,2013-02-15 04:44:00,
2013-02-14 23:49:00,31.7,29.9,30.00,SSW,212,0.0,3.0,93,0.00,,,0.00,Wunderground v.1.15,2013-02-15 04:49:00,
2013-02-14 23:55:00,31.6,29.8,30.00,SSW,212,0.0,3.0,93,0.00,,,0.00,Wunderground v.1.15,2013-02-15 04:55:00,